Time;durP1;ratioP1;P1;durP2;ratioP2;P2;SDS_P1;SDS_P2;PMS_P1;PMS_P2;Temp;Humidity;BMP_temperature;BMP_pressure;BME280_temperature;BME280_humidity;BME280_pressure;Samples;Min_cycle;Max_cycle;Signal;HPM_P1;HPM_P2
2023/02/21 02:15:11;;;;;;;20.95;4.82;;;;;;;1.14;100.00;99283.56;4902519;28;20074;-75
2023/02/21 02:17:52;;;;;;;13.73;5.82;;;;;;;1.12;100.00;99290.84;4894487;29;20127;-75
2023/02/21 02:20:46;;;;;;;15.23;5.50;;;;;;;1.00;100.00;99293.56;4901372;28;20120;-75
2023/02/21 02:23:49;;;;;;;13.95;5.30;;;;;;;1.01;100.00;99284.59;4952126;28;20040;-75
2023/02/21 02:26:39;;;;;;;17.27;6.15;;;;;;;0.97;100.00;99283.19;4906800;29;20028;-75
2023/02/21 02:29:31;;;;;;;17.27;6.82;;;;;;;0.96;100.00;99281.47;4910091;28;20045;-75
2023/02/21 02:32:25;;;;;;;17.33;6.15;;;;;;;0.90;100.00;99270.50;4912923;28;20035;-75
2023/02/21 02:34:59;;;;;;;17.67;6.50;;;;;;;0.90;100.00;99279.34;4920422;28;20178;-75
2023/02/21 02:37:34;;;;;;;15.13;6.60;;;;;;;0.75;100.00;99272.66;4902078;29;20159;-75
2023/02/21 02:40:20;;;;;;;19.70;6.68;;;;;;;0.93;100.00;99280.91;4898114;28;20623;-74
2023/02/21 02:43:14;;;;;;;13.48;6.32;;;;;;;0.88;100.00;99273.28;4919475;28;20039;-75
2023/02/21 02:45:57;;;;;;;18.52;7.38;;;;;;;0.80;100.00;99270.44;4902025;28;20501;-74
2023/02/21 02:48:57;;;;;;;14.00;6.70;;;;;;;0.74;100.00;99276.28;4943127;23;20076;-56
2023/02/21 02:51:24;;;;;;;16.05;7.03;;;;;;;0.63;100.00;99269.22;4936178;28;20031;-56
2023/02/21 02:53:49;;;;;;;15.93;7.32;;;;;;;0.58;100.00;99276.75;4925467;28;20039;-56
2023/02/21 02:56:16;;;;;;;15.02;6.63;;;;;;;0.65;100.00;99270.78;4919850;29;20055;-56
2023/02/21 02:58:51;;;;;;;11.80;6.20;;;;;;;0.63;100.00;99269.22;4930217;28;20046;-56
2023/02/21 03:01:22;;;;;;;13.43;6.07;;;;;;;0.61;100.00;99274.66;4931099;29;20062;-56
2023/02/21 03:04:26;;;;;;;18.17;7.50;;;;;;;0.60;100.00;99280.09;4935198;28;20036;-56
2023/02/21 03:07:32;;;;;;;17.27;7.82;;;;;;;0.62;100.00;99279.00;4945275;28;20423;-56
2023/02/21 03:11:08;;;;;;;15.05;7.60;;;;;;;0.58;100.00;99276.75;4931485;29;20399;-56
2023/02/21 03:13:56;;;;;;;19.42;8.18;;;;;;;0.62;100.00;99273.66;4950812;28;20047;-56
2023/02/21 03:16:30;;;;;;;16.17;7.97;;;;;;;0.60;100.00;99270.31;4917217;29;20497;-59
2023/02/21 03:19:01;;;;;;;19.25;7.93;;;;;;;0.58;100.00;99269.59;4932530;28;20039;-56
2023/02/21 03:21:35;;;;;;;13.82;7.90;;;;;;;0.55;100.00;99276.97;4919721;28;20427;-56
2023/02/21 03:24:04;;;;;;;17.23;8.57;;;;;;;0.50;100.00;99277.38;4938867;28;20059;-56
2023/02/21 03:26:32;;;;;;;15.48;8.52;;;;;;;0.64;100.00;99278.88;4927110;28;20074;-56
2023/02/21 03:28:58;;;;;;;14.80;6.53;;;;;;;0.61;100.00;99282.63;4915376;29;20086;-56
2023/02/21 03:31:29;;;;;;;18.80;8.52;;;;;;;0.58;100.00;99284.72;4928215;29;20426;-56
2023/02/21 03:33:55;;;;;;;17.58;8.63;;;;;;;0.59;100.00;99273.94;4924958;28;20058;-56
2023/02/21 03:36:21;;;;;;;17.58;7.95;;;;;;;0.65;100.00;99280.56;4951938;28;20476;-59
2023/02/21 03:38:47;;;;;;;17.50;8.60;;;;;;;0.65;100.00;99278.75;4927853;28;20047;-56
2023/02/21 03:41:14;;;;;;;17.90;7.65;;;;;;;0.62;100.00;99284.31;4924860;28;20024;-56
2023/02/21 03:43:39;;;;;;;17.92;7.30;;;;;;;0.63;100.00;99285.19;4928124;28;20032;-56
2023/02/21 03:46:05;;;;;;;23.55;8.15;;;;;;;0.61;100.00;99279.13;4922220;28;20028;-56
2023/02/21 03:48:30;;;;;;;18.13;7.07;;;;;;;0.62;100.00;99283.47;4943208;28;20476;-56
2023/02/21 03:50:55;;;;;;;17.75;7.18;;;;;;;0.64;100.00;99282.38;4930728;29;20031;-56
2023/02/21 03:53:21;;;;;;;19.85;7.47;;;;;;;0.62;100.00;99267.50;4932382;28;20035;-56
2023/02/21 03:55:46;;;;;;;17.95;6.38;;;;;;;0.72;100.00;99276.41;4923149;28;20368;-56
2023/02/21 03:58:11;;;;;;;21.98;7.53;;;;;;;0.67;100.00;99272.44;4924238;29;20510;-56
2023/02/21 04:00:37;;;;;;;15.50;6.70;;;;;;;0.63;100.00;99283.38;4930551;28;20024;-57
2023/02/21 04:03:02;;;;;;;18.73;6.38;;;;;;;0.64;100.00;99277.06;4932043;28;20031;-56
2023/02/21 04:05:28;;;;;;;15.95;6.45;;;;;;;0.63;100.00;99275.38;4927572;28;20020;-56
2023/02/21 04:07:53;;;;;;;15.30;5.78;;;;;;;0.57;100.00;99280.34;4925627;29;20031;-56
2023/02/21 04:10:18;;;;;;;14.00;5.60;;;;;;;0.56;100.00;99273.34;4931057;28;20078;-56
2023/02/21 04:12:44;;;;;;;10.93;5.35;;;;;;;0.61;100.00;99272.00;4930377;28;20042;-56
2023/02/21 04:15:10;;;;;;;12.73;5.53;;;;;;;0.58;100.00;99268.75;4928310;28;20499;-56
2023/02/21 04:17:35;;;;;;;12.90;6.07;;;;;;;0.72;100.00;99275.56;4939010;28;20026;-56
2023/02/21 04:20:01;;;;;;;10.60;5.60;;;;;;;0.67;100.00;99285.75;4926864;29;20472;-56
2023/02/21 04:22:26;;;;;;;14.68;5.78;;;;;;;0.62;100.00;99273.66;4923552;29;20040;-57
2023/02/21 04:24:51;;;;;;;12.15;5.50;;;;;;;0.57;100.00;99265.22;4923824;28;20030;-56
2023/02/21 04:27:17;;;;;;;14.43;5.50;;;;;;;0.59;100.00;99262.44;4922617;28;20438;-56
2023/02/21 04:29:42;;;;;;;11.27;5.60;;;;;;;0.56;100.00;99258.22;4923702;28;20031;-56
2023/02/21 04:32:09;;;;;;;13.57;6.53;;;;;;;0.48;100.00;99260.69;4922910;28;20360;-55
2023/02/21 04:34:35;;;;;;;15.23;6.68;;;;;;;0.45;100.00;99266.25;4929662;28;20047;-56
2023/02/21 04:37:00;;;;;;;12.77;5.82;;;;;;;0.36;100.00;99251.88;4930744;28;20403;-56
2023/02/21 04:39:26;;;;;;;19.08;7.40;;;;;;;0.33;100.00;99253.97;4923681;28;20077;-56
2023/02/21 04:41:51;;;;;;;11.45;6.70;;;;;;;0.30;100.00;99251.56;4925242;28;20024;-56
2023/02/21 04:44:17;;;;;;;11.80;6.70;;;;;;;0.18;100.00;99264.03;4919831;29;20387;-56
2023/02/21 04:46:42;;;;;;;13.35;8.05;;;;;;;0.14;100.00;99255.47;4926924;28;20536;-56
2023/02/21 04:49:09;;;;;;;14.75;7.18;;;;;;;0.20;100.00;99256.78;4923468;28;20036;-56
2023/02/21 04:51:34;;;;;;;15.70;7.80;;;;;;;0.01;100.00;99246.81;4929185;29;20028;-61
2023/02/21 04:54:00;;;;;;;17.70;7.47;;;;;;;-0.08;100.00;99259.06;4930512;28;20399;-61
2023/02/21 04:56:26;;;;;;;12.68;7.63;;;;;;;-0.07;100.00;99263.41;4926454;28;20151;-61
2023/02/21 04:58:52;;;;;;;15.25;8.38;;;;;;;0.06;100.00;99260.59;4922068;28;20068;-61
2023/02/21 05:01:18;;;;;;;13.10;7.60;;;;;;;0.00;100.00;99258.44;4921478;28;20020;-61
2023/02/21 05:03:44;;;;;;;25.00;8.07;;;;;;;-0.05;100.00;99258.81;4925433;28;20059;-61
2023/02/21 05:06:09;;;;;;;13.60;7.43;;;;;;;-0.12;100.00;99251.44;4926328;28;21428;-62
2023/02/21 05:08:35;;;;;;;12.90;7.30;;;;;;;-0.13;100.00;99252.41;4920126;28;20063;-61
2023/02/21 05:11:00;;;;;;;17.17;7.93;;;;;;;-0.05;100.00;99248.16;4967366;28;20056;-61
2023/02/21 05:13:26;;;;;;;16.33;6.60;;;;;;;0.02;100.00;99253.81;4932141;28;20027;-62
2023/02/21 05:15:51;;;;;;;16.65;9.70;;;;;;;0.07;100.00;99248.97;4933904;28;20043;-61
2023/02/21 05:18:22;;;;;;;17.00;8.48;;;;;;;0.10;100.00;99251.38;4955163;28;20087;-62
2023/02/21 05:20:50;;;;;;;16.77;8.55;;;;;;;0.07;100.00;99251.63;4986117;28;20028;-61
2023/02/21 05:23:32;;;;;;;18.30;7.95;;;;;;;0.07;100.00;99245.47;4932765;28;20059;-56
2023/02/21 05:26:02;;;;;;;16.13;8.57;;;;;;;-0.02;100.00;99236.44;4933377;28;20375;-56
2023/02/21 05:28:27;;;;;;;;;;;;;;;0.08;100.00;99244.47;4926071;28;20027;-56
2023/02/21 05:30:53;;;;;;;21.30;7.78;;;;;;;0.14;100.00;99242.19;4919414;29;19922;-56
2023/02/21 05:33:18;;;;;;;15.77;7.95;;;;;;;0.05;100.00;99250.06;4924742;28;20031;-56
2023/02/21 05:35:46;;;;;;;16.17;7.32;;;;;;;-0.07;100.00;99242.13;4928450;28;20397;-56
2023/02/21 05:38:11;;;;;;;23.17;9.05;;;;;;;-0.11;100.00;99232.69;4931418;28;20032;-55
2023/02/21 05:40:37;;;;;;;23.20;8.77;;;;;;;-0.12;100.00;99230.19;4985667;28;20086;-56
2023/02/21 05:43:02;;;;;;;31.60;9.07;;;;;;;-0.04;100.00;99254.31;4921908;28;20126;-56
2023/02/21 05:45:27;;;;;;;19.90;8.23;;;;;;;-0.18;100.00;99252.78;4920590;28;20039;-56
2023/02/21 05:47:57;;;;;;;18.70;7.35;;;;;;;-0.18;100.00;99271.41;4926713;28;20033;-56
2023/02/21 05:50:22;;;;;;;13.32;7.18;;;;;;;-0.23;100.00;99263.78;4928478;29;20055;-56
2023/02/21 05:52:48;;;;;;;14.35;7.13;;;;;;;-0.22;100.00;99268.13;4928665;28;21723;-55
2023/02/21 05:55:13;;;;;;;13.20;7.07;;;;;;;-0.19;100.00;99271.53;4930891;28;20032;-56
2023/02/21 05:57:39;;;;;;;15.25;7.28;;;;;;;-0.15;100.00;99278.28;4942571;28;20054;-55
2023/02/21 06:00:05;;;;;;;21.17;7.68;;;;;;;-0.12;100.00;99273.56;4945611;29;20417;-56
2023/02/21 06:02:30;;;;;;;23.42;6.82;;;;;;;-0.24;100.00;99267.44;4923322;29;20059;-56
2023/02/21 06:04:56;;;;;;;27.23;7.40;;;;;;;-0.26;100.00;99271.19;4929917;29;20106;-56
2023/02/21 06:07:21;;;;;;;20.50;6.78;;;;;;;-0.35;100.00;99270.09;4920024;28;20051;-56
2023/02/21 06:09:46;;;;;;;20.30;6.82;;;;;;;-0.27;100.00;99280.09;4926134;28;20142;-56
2023/02/21 06:12:12;;;;;;;16.10;7.25;;;;;;;-0.19;100.00;99274.19;4930097;28;20020;-56
2023/02/21 06:14:37;;;;;;;13.98;5.90;;;;;;;-0.17;100.00;99277.56;4922573;28;20032;-65
2023/02/21 06:17:03;;;;;;;16.40;6.97;;;;;;;-0.11;100.00;99277.06;4929457;28;20032;-61
2023/02/21 06:19:28;;;;;;;16.40;7.15;;;;;;;-0.22;100.00;99267.28;4979989;28;20031;-61
2023/02/21 06:21:54;;;;;;;23.50;6.85;;;;;;;-0.29;100.00;99264.31;4924038;28;20055;-62
2023/02/21 06:24:19;;;;;;;21.08;6.78;;;;;;;-0.35;100.00;99267.44;4927352;28;20114;-61
2023/02/21 06:26:44;;;;;;;13.20;7.00;;;;;;;-0.24;100.00;99258.59;4943324;28;20117;-61
2023/02/21 06:29:11;;;;;;;12.38;6.75;;;;;;;-0.25;100.00;99262.22;4925886;28;20039;-61
2023/02/21 06:31:36;;;;;;;14.35;7.22;;;;;;;-0.22;100.00;99262.81;4968399;28;20047;-62
2023/02/21 06:34:02;;;;;;;21.10;7.88;;;;;;;-0.08;100.00;99260.84;4919293;28;20120;-61
2023/02/21 06:36:28;;;;;;;14.48;6.70;;;;;;;-0.03;100.00;99253.34;4921561;28;20390;-65
2023/02/21 06:38:55;;;;;;;14.57;7.30;;;;;;;0.11;100.00;99253.06;4926294;28;20039;-61
2023/02/21 06:41:24;;;;;;;16.35;7.88;;;;;;;0.17;100.00;99247.25;4924473;28;20115;-60
2023/02/21 06:43:50;;;;;;;12.32;7.15;;;;;;;0.22;100.00;99253.03;4974886;28;20044;-60
2023/02/21 06:46:17;;;;;;;14.05;6.85;;;;;;;0.32;100.00;99254.94;4924488;28;20106;-61
2023/02/21 06:48:43;;;;;;;19.83;6.88;;;;;;;0.47;100.00;99248.31;4931879;28;20036;-61
2023/02/21 06:51:13;;;;;;;17.85;6.88;;;;;;;0.63;100.00;99240.75;4935327;28;20034;-61
2023/02/21 06:53:39;;;;;;;15.85;7.22;;;;;;;0.72;100.00;99241.78;4938309;28;20035;-61
2023/02/21 06:56:06;;;;;;;15.63;7.30;;;;;;;0.79;100.00;99242.97;4941530;28;20122;-55
2023/02/21 06:58:31;;;;;;;13.73;7.43;;;;;;;0.97;100.00;99245.88;4921121;29;20043;-55
2023/02/21 07:00:56;;;;;;;20.10;7.13;;;;;;;1.43;100.00;99246.38;4937555;28;20020;-55
2023/02/21 07:03:23;;;;;;;14.18;5.95;;;;;;;2.66;100.00;99238.00;4941679;28;20412;-55
2023/02/21 07:05:48;;;;;;;14.60;5.80;;;;;;;4.91;100.00;99218.69;4921327;28;20058;-55
2023/02/21 07:08:13;;;;;;;10.35;5.43;;;;;;;6.25;100.00;99208.22;4968155;28;20032;-55
2023/02/21 07:10:39;;;;;;;13.65;5.78;;;;;;;6.84;100.00;99204.53;4937019;28;20452;-55
2023/02/21 07:13:04;;;;;;;12.98;5.28;;;;;;;7.61;100.00;99202.19;4921751;29;20121;-55
2023/02/21 07:15:30;;;;;;;15.05;5.28;;;;;;;9.74;100.00;99198.56;4931662;28;20066;-55
2023/02/21 07:17:55;;;;;;;17.30;4.97;;;;;;;10.38;100.00;99192.50;4931067;28;20067;-62
2023/02/21 07:20:20;;;;;;;18.33;5.13;;;;;;;10.77;97.39;99191.19;4925877;28;20123;-63
2023/02/21 07:22:46;;;;;;;6.95;4.32;;;;;;;11.16;84.16;99200.63;4929147;28;20032;-63
2023/02/21 07:25:16;;;;;;;10.15;4.25;;;;;;;12.11;74.58;99203.69;4933002;28;20490;-58
2023/02/21 07:27:42;;;;;;;13.43;4.90;;;;;;;12.62;68.69;99200.47;4934137;28;20431;-58
2023/02/21 07:30:09;;;;;;;9.57;4.80;;;;;;;12.34;70.77;99200.63;4917628;28;20024;-58
2023/02/21 07:32:34;;;;;;;11.52;4.93;;;;;;;12.43;67.44;99199.41;4920702;28;20047;-58
2023/02/21 07:35:00;;;;;;;12.25;5.10;;;;;;;12.84;64.87;99196.53;4920749;28;20039;-58
2023/02/21 07:37:26;;;;;;;10.70;5.20;;;;;;;13.13;65.25;99189.00;4915238;28;20028;-58
2023/02/21 07:39:52;;;;;;;13.00;5.65;;;;;;;12.90;64.61;99198.41;4955019;28;20106;-58
2023/02/21 07:42:17;;;;;;;10.35;5.30;;;;;;;13.36;63.03;99202.16;4923008;28;20111;-58
2023/02/21 07:44:44;;;;;;;8.52;4.32;;;;;;;14.32;59.28;99201.41;4924512;28;20036;-58
2023/02/21 07:47:09;;;;;;;8.10;4.88;;;;;;;14.21;60.17;99205.66;4925003;28;20044;-58
2023/02/21 07:49:39;;;;;;;7.80;4.43;;;;;;;14.18;61.17;99200.63;4941698;28;20039;-58
2023/02/21 07:52:04;;;;;;;9.65;4.40;;;;;;;14.78;58.58;99197.59;4925926;28;20032;-58
2023/02/21 07:54:30;;;;;;;11.45;4.70;;;;;;;15.85;54.82;99204.75;4925054;28;20031;-58
2023/02/21 07:56:55;;;;;;;10.63;4.55;;;;;;;16.00;55.08;99197.03;4933509;28;20475;-58
2023/02/21 07:59:21;;;;;;;12.60;6.10;;;;;;;15.28;55.07;99200.31;4918797;28;20032;-58
2023/02/21 08:01:46;;;;;;;16.20;7.47;;;;;;;15.34;53.76;99199.38;4917863;28;20038;-58
2023/02/21 08:04:12;;;;;;;17.10;7.68;;;;;;;16.81;51.51;99198.44;4930860;28;20040;-58
2023/02/21 08:06:38;;;;;;;19.48;6.35;;;;;;;17.38;49.52;99189.69;4948560;28;20040;-58
2023/02/21 08:09:05;;;;;;;12.88;7.70;;;;;;;18.36;47.46;99187.13;4919460;28;20042;-63
2023/02/21 08:11:33;;;;;;;16.98;7.82;;;;;;;18.78;45.44;99198.63;4932038;28;20024;-64
2023/02/21 08:13:58;;;;;;;13.02;7.82;;;;;;;18.37;46.37;99195.13;4953903;28;20024;-64
2023/02/21 08:16:24;;;;;;;14.30;8.10;;;;;;;18.18;46.00;99193.63;4925337;28;20032;-62
2023/02/21 08:18:49;;;;;;;12.25;7.60;;;;;;;19.05;44.72;99198.00;4919285;28;20399;-63
2023/02/21 08:21:15;;;;;;;16.23;6.68;;;;;;;18.46;45.68;99202.94;4923780;28;20036;-63
2023/02/21 08:23:41;;;;;;;10.60;6.32;;;;;;;19.37;44.88;99198.22;4921739;28;20028;-62
2023/02/21 08:26:06;;;;;;;15.85;6.43;;;;;;;20.32;43.03;99195.38;4919195;28;20380;-62
2023/02/21 08:28:32;;;;;;;8.55;5.45;;;;;;;21.13;41.34;99192.63;4921348;29;20031;-62
2023/02/21 08:30:57;;;;;;;10.77;5.13;;;;;;;21.87;41.24;99186.22;4949415;28;20083;-62
2023/02/21 08:33:23;;;;;;;10.48;5.47;;;;;;;21.01;41.95;99198.31;4961313;28;20479;-63
2023/02/21 08:35:49;;;;;;;10.52;5.43;;;;;;;21.60;40.43;99204.81;4939867;28;20046;-62
2023/02/21 08:38:16;;;;;;;14.48;4.60;;;;;;;21.42;41.63;99206.91;4922906;28;20036;-62
2023/02/21 08:40:41;;;;;;;9.25;4.82;;;;;;;21.64;40.75;99203.16;4927494;28;20034;-63
2023/02/21 08:43:07;;;;;;;11.38;4.78;;;;;;;21.24;41.71;99205.34;4934333;28;20029;-63
2023/02/21 08:45:32;;;;;;;9.80;4.47;;;;;;;20.93;41.73;99203.44;4934410;28;20479;-63
2023/02/21 08:47:58;;;;;;;9.85;4.45;;;;;;;21.81;39.23;99192.00;4945545;23;20039;-76
2023/02/21 08:50:26;;;;;;;8.88;4.13;;;;;;;22.40;39.54;99196.38;4925108;28;20035;-75
2023/02/21 08:52:52;;;;;;;10.03;4.60;;;;;;;22.74;38.74;99182.94;4925861;28;20090;-76
2023/02/21 08:55:18;;;;;;;8.93;3.85;;;;;;;22.32;39.35;99178.44;4929815;29;20028;-76
2023/02/21 08:57:44;;;;;;;10.57;3.92;;;;;;;23.24;38.04;99175.81;4926833;28;20485;-77
2023/02/21 09:00:13;;;;;;;7.75;3.65;;;;;;;22.47;39.09;99178.47;4930820;28;20481;-75
2023/02/21 09:02:39;;;;;;;10.32;4.45;;;;;;;23.59;37.80;99185.16;4926187;28;20032;-77
2023/02/21 09:05:12;;;;;;;7.35;3.92;;;;;;;24.26;37.05;99175.53;4918900;28;20036;-76
2023/02/21 09:07:38;;;;;;;6.97;3.20;;;;;;;23.60;37.71;99165.53;4919412;28;20030;-75
2023/02/21 09:10:04;;;;;;;7.38;3.63;;;;;;;23.52;38.28;99179.91;4931920;28;20036;-72
2023/02/21 09:12:30;;;;;;;12.70;4.47;;;;;;;23.64;37.89;99187.91;4926750;28;20099;-72
2023/02/21 09:14:55;;;;;;;10.30;3.28;;;;;;;25.32;36.68;99185.34;4923748;28;20123;-72
2023/02/21 09:17:20;;;;;;;9.20;3.53;;;;;;;24.77;36.04;99192.97;4917063;28;20430;-72
2023/02/21 09:19:45;;;;;;;5.63;3.45;;;;;;;26.39;33.99;99183.34;4905946;28;20042;-73
2023/02/21 09:22:11;;;;;;;9.60;3.35;;;;;;;26.18;34.19;99180.81;4925400;29;20382;-72
2023/02/21 09:24:38;;;;;;;8.98;3.80;;;;;;;26.25;33.81;99163.81;4925930;29;20142;-76
2023/02/21 09:27:04;;;;;;;6.78;3.58;;;;;;;25.32;35.59;99179.81;4934859;28;20032;-74
2023/02/21 09:29:32;;;;;;;5.57;3.38;;;;;;;25.06;35.70;99168.94;4928000;28;20036;-76
2023/02/21 09:31:58;;;;;;;6.67;3.10;;;;;;;26.34;35.49;99159.25;4954422;28;20059;-82
2023/02/21 09:34:23;;;;;;;9.07;3.50;;;;;;;25.89;35.82;99167.06;4950319;28;20033;-75
2023/02/21 09:36:49;;;;;;;8.73;3.50;;;;;;;26.21;35.20;99154.44;4994503;28;20022;-73
2023/02/21 09:39:16;;;;;;;9.65;3.17;;;;;;;28.71;32.80;99154.63;4924964;28;20058;-74
2023/02/21 09:41:42;;;;;;;5.35;2.78;;;;;;;28.42;32.79;99149.41;4949630;28;20162;-74
2023/02/21 09:44:14;;;;;;;5.78;3.08;;;;;;;29.53;31.55;99148.94;4919777;29;20031;-73
2023/02/21 09:46:48;;;;;;;6.55;2.95;;;;;;;29.70;30.50;99160.22;4916166;28;20111;-73
2023/02/21 09:49:27;;;;;;;9.15;3.33;;;;;;;27.83;32.10;99156.84;4924677;28;20035;-77
2023/02/21 09:51:54;;;;;;;7.30;3.30;;;;;;;26.84;33.53;99165.19;4927195;28;20481;-76
2023/02/21 09:54:19;;;;;;;6.75;3.42;;;;;;;28.16;32.10;99155.56;4956211;28;20025;-79
2023/02/21 09:56:45;;;;;;;9.35;3.45;;;;;;;28.11;31.89;99161.25;4947475;28;20032;-80
2023/02/21 09:59:12;;;;;;;8.57;2.90;;;;;;;27.34;31.90;99158.28;4930538;28;20039;-80
2023/02/21 10:01:59;;;;;;;6.57;2.88;;;;;;;27.06;31.68;99155.38;4934426;28;20028;-77
2023/02/21 10:04:38;;;;;;;8.88;3.33;;;;;;;28.06;31.73;99152.16;4926089;29;20167;-77
2023/02/21 10:07:25;;;;;;;8.82;2.95;;;;;;;28.46;30.00;99144.94;4932632;28;20123;-75
2023/02/21 10:10:13;;;;;;;5.20;2.70;;;;;;;26.69;31.80;99154.31;4929066;28;20031;-74
2023/02/21 10:12:44;;;;;;;7.20;3.10;;;;;;;27.36;31.28;99154.06;4958706;28;20032;-78
2023/02/21 10:15:12;;;;;;;7.88;3.08;;;;;;;26.50;32.75;99156.25;4958069;28;20034;-77
2023/02/21 10:17:51;;;;;;;6.68;3.58;;;;;;;26.72;32.74;99156.50;5010143;28;20025;-77
2023/02/21 10:20:37;;;;;;;;;;;;;;;27.88;31.10;99154.78;4966893;28;20032;-77
2023/02/21 10:23:13;;;;;;;7.10;3.38;;;;;;;29.46;29.05;99155.00;4956732;28;19921;-77
2023/02/21 10:25:43;;;;;;;11.43;4.15;;;;;;;29.41;29.27;99142.00;4941517;28;20076;-77
2023/02/21 10:28:21;;;;;;;7.22;3.65;;;;;;;28.38;30.35;99145.63;4943050;29;20032;-77
2023/02/21 10:30:49;;;;;;;8.07;3.58;;;;;;;29.25;30.01;99151.94;4939901;28;20083;-77
2023/02/21 10:33:15;;;;;;;8.25;4.13;;;;;;;28.23;30.36;99137.63;4963579;28;20092;-77
2023/02/21 10:35:40;;;;;;;6.82;3.70;;;;;;;29.79;28.98;99143.50;4991193;28;20055;-77
2023/02/21 10:38:10;;;;;;;6.65;3.65;;;;;;;29.73;28.60;99148.41;4939905;29;20031;-77
2023/02/21 10:40:41;;;;;;;7.00;3.65;;;;;;;28.11;29.88;99150.13;4938080;28;20026;-77
2023/02/21 10:43:14;;;;;;;7.15;3.50;;;;;;;28.51;29.86;99132.84;4987934;28;20414;-77
2023/02/21 10:45:56;;;;;;;9.57;4.20;;;;;;;27.19;31.13;99137.16;4973307;28;20028;-76
2023/02/21 10:48:24;;;;;;;7.38;3.58;;;;;;;27.92;31.00;99135.50;4921534;28;20028;-76
2023/02/21 10:51:03;;;;;;;8.55;4.10;;;;;;;29.20;29.90;99135.34;4932617;29;20038;-77
2023/02/21 10:53:32;;;;;;;7.47;3.90;;;;;;;28.80;30.26;99140.78;4930729;29;20111;-77
2023/02/21 10:56:19;;;;;;;6.78;4.00;;;;;;;28.69;29.76;99136.59;4914001;28;20047;-76
2023/02/21 10:58:53;;;;;;;9.73;3.83;;;;;;;29.10;29.91;99133.63;4963558;28;20041;-76
2023/02/21 11:01:34;;;;;;;7.78;3.92;;;;;;;30.71;28.34;99129.59;4931771;28;20031;-78
2023/02/21 11:04:06;;;;;;;6.75;4.10;;;;;;;29.40;28.37;99115.28;4958990;28;20507;-78
2023/02/21 11:06:31;;;;;;;7.30;4.13;;;;;;;29.28;29.45;99126.22;4970917;28;20027;-77
2023/02/21 11:08:57;;;;;;;6.97;3.93;;;;;;;29.39;29.21;99116.41;4930453;28;20441;-80
2023/02/21 11:11:33;;;;;;;7.78;4.25;;;;;;;29.41;28.94;99121.69;4926375;28;20087;-81
2023/02/21 11:14:24;;;;;;;7.78;3.65;;;;;;;29.27;28.96;99114.25;4938096;28;20032;-76
2023/02/21 11:17:12;;;;;;;8.88;3.85;;;;;;;29.87;28.38;99107.31;4925537;29;20047;-73
2023/02/21 11:19:49;;;;;;;8.50;4.20;;;;;;;27.92;29.42;99107.69;4954750;28;20110;-72
2023/02/21 11:22:18;;;;;;;9.15;4.25;;;;;;;28.23;29.70;99098.69;4944214;28;20041;-72
2023/02/21 11:24:59;;;;;;;7.05;4.05;;;;;;;30.71;27.63;99098.88;5031694;28;20052;-72
2023/02/21 11:27:26;;;;;;;7.65;4.10;;;;;;;30.14;28.18;99097.00;4989492;28;20032;-72
2023/02/21 11:29:53;;;;;;;9.02;3.60;;;;;;;30.26;27.63;99086.06;4927683;28;20392;-73
2023/02/21 11:32:26;;;;;;;8.00;4.43;;;;;;;30.93;26.76;99081.13;4916859;28;20052;-74
2023/02/21 11:35:00;;;;;;;9.90;4.05;;;;;;;29.97;27.82;99072.69;4920089;28;20048;-73
2023/02/21 11:37:27;;;;;;;8.13;4.10;;;;;;;29.82;28.22;99065.59;4936282;28;20158;-74
2023/02/21 11:39:53;;;;;;;7.07;4.20;;;;;;;31.05;27.33;99060.84;4928172;29;20034;-73
2023/02/21 11:42:29;;;;;;;8.85;4.40;;;;;;;28.25;28.84;99060.25;4920338;28;20472;-75
2023/02/21 11:45:12;;;;;;;7.65;3.92;;;;;;;27.93;29.64;99067.63;4977357;28;20528;-75
2023/02/21 11:47:45;;;;;;;7.15;4.00;;;;;;;29.24;28.68;99058.34;4930276;28;20482;-76
2023/02/21 11:50:21;;;;;;;9.23;4.00;;;;;;;28.74;28.96;99058.50;4926315;29;20024;-78
2023/02/21 11:53:11;;;;;;;7.25;3.80;;;;;;;30.70;27.33;99053.34;4924620;28;20028;-77
2023/02/21 11:55:38;;;;;;;9.75;3.70;;;;;;;30.28;27.58;99039.09;4962422;28;20128;-77
2023/02/21 11:58:33;;;;;;;8.32;4.18;;;;;;;29.95;27.53;99032.31;4973059;28;20032;-76
2023/02/21 12:01:05;;;;;;;8.95;4.43;;;;;;;29.04;28.49;99045.75;4932239;28;20020;-76
2023/02/21 12:03:58;;;;;;;10.60;3.70;;;;;;;28.65;29.38;99029.78;4998049;28;20025;-76
2023/02/21 12:06:50;;;;;;;7.28;3.97;;;;;;;29.31;29.23;99027.19;4939477;28;20043;-75
2023/02/21 12:09:24;;;;;;;7.03;4.07;;;;;;;27.25;30.77;99033.16;4967763;28;20043;-79
2023/02/21 12:12:05;;;;;;;8.77;4.07;;;;;;;26.09;31.91;99021.75;4933853;28;20032;-75
2023/02/21 12:14:56;;;;;;;7.63;3.83;;;;;;;28.09;30.11;98999.38;4928808;28;20081;-75
2023/02/21 12:17:31;;;;;;;6.40;3.30;;;;;;;27.37;30.49;98999.28;4994641;28;20029;-75
2023/02/21 12:20:20;;;;;;;10.35;4.18;;;;;;;27.42;31.23;98997.22;4947309;28;20032;-82
2023/02/21 12:22:51;;;;;;;8.05;4.10;;;;;;;28.03;30.54;98995.06;4926860;28;20134;-80
2023/02/21 12:25:35;;;;;;;6.70;3.70;;;;;;;28.47;29.31;98987.91;4936036;28;20098;-74
2023/02/21 12:28:18;;;;;;;9.80;3.67;;;;;;;27.60;31.07;98986.31;4933486;29;20031;-75
2023/02/21 12:30:52;;;;;;;6.70;3.13;;;;;;;27.54;31.06;98980.84;4953314;28;20050;-78
2023/02/21 12:34:03;;;;;;;7.25;3.00;;;;;;;28.19;30.71;98971.31;4965108;28;20026;-78
2023/02/21 12:36:31;;;;;;;4.97;3.05;;;;;;;29.57;28.73;98961.19;4948178;28;20028;-76
2023/02/21 12:39:24;;;;;;;6.90;3.13;;;;;;;29.71;29.22;98961.06;4945976;29;20061;-78
2023/02/21 12:42:01;;;;;;;5.53;2.67;;;;;;;28.54;29.09;98960.44;4975623;28;20043;-83
2023/02/21 12:44:42;;;;;;;6.80;3.00;;;;;;;27.97;29.62;98949.06;4994503;28;20112;-79
2023/02/21 12:47:11;;;;;;;8.13;2.78;;;;;;;28.34;30.12;98945.06;4962297;28;20034;-77
2023/02/21 12:49:53;;;;;;;8.07;3.17;;;;;;;28.67;29.17;98941.19;4954327;28;20241;-81
2023/02/21 12:52:35;;;;;;;5.00;2.90;;;;;;;26.84;31.53;98937.53;4957593;28;20030;-79
2023/02/21 12:55:20;;;;;;;7.00;2.85;;;;;;;27.44;31.56;98939.41;4931386;28;20032;-76
2023/02/21 12:58:23;;;;;;;6.35;3.22;;;;;;;28.75;29.97;98927.31;4931037;28;20043;-74
2023/02/21 13:00:57;;;;;;;4.10;2.47;;;;;;;28.44;29.65;98927.31;4978748;28;20130;-75
2023/02/21 13:03:34;;;;;;;5.75;2.50;;;;;;;28.41;29.76;98922.34;4946458;29;20028;-76
2023/02/21 13:06:06;;;;;;;12.02;2.60;;;;;;;28.21;30.23;98922.88;4935556;29;20031;-76
2023/02/21 13:08:35;;;;;;;7.65;2.33;;;;;;;28.98;29.79;98908.56;4934299;28;20032;-76
2023/02/21 13:11:21;;;;;;;4.28;2.20;;;;;;;28.51;29.66;98901.81;4935911;28;20591;-75
2023/02/21 13:13:47;;;;;;;5.70;2.20;;;;;;;29.38;28.48;98900.16;4971798;28;20027;-76
2023/02/21 13:16:13;;;;;;;4.38;1.80;;;;;;;28.58;29.27;98896.59;4972844;28;20047;-76
2023/02/21 13:18:43;;;;;;;2.67;1.45;;;;;;;27.13;29.96;98891.97;4932571;28;20127;-76
2023/02/21 13:21:44;;;;;;;3.50;2.00;;;;;;;25.78;31.26;98893.84;4937368;28;20024;-73
2023/02/21 13:24:53;;;;;;;5.38;2.13;;;;;;;26.21;32.50;98879.88;4956811;28;20062;-75
2023/02/21 13:27:18;;;;;;;;;;;;;;;27.75;30.15;98875.59;4947110;28;20394;-75
2023/02/21 13:29:44;;;;;;;4.13;1.70;;;;;;;29.51;28.63;98866.91;4959126;28;19922;-76
2023/02/21 13:32:18;;;;;;;4.95;2.35;;;;;;;27.86;29.68;98873.41;4921856;29;20032;-75
2023/02/21 13:35:06;;;;;;;6.82;2.10;;;;;;;28.24;29.73;98856.28;4925117;28;20024;-75
2023/02/21 13:37:34;;;;;;;5.37;2.47;;;;;;;28.03;29.95;98860.75;4923603;29;20020;-75
2023/02/21 13:40:20;;;;;;;7.67;1.90;;;;;;;28.19;29.48;98850.84;4925399;28;20382;-75
2023/02/21 13:42:45;;;;;;;5.95;2.00;;;;;;;28.92;29.21;98837.44;4933759;28;20057;-76
2023/02/21 13:45:18;;;;;;;4.30;1.80;;;;;;;29.56;29.61;98833.28;4955552;28;20080;-76
2023/02/21 13:47:56;;;;;;;3.63;1.80;;;;;;;30.19;27.93;98834.53;4997049;28;20643;-76
2023/02/21 13:50:34;;;;;;;9.10;2.30;;;;;;;30.19;28.60;98833.72;4925185;28;20096;-76
2023/02/21 13:53:20;;;;;;;;;;;;;;;29.77;28.47;98825.91;4921957;28;20043;-76
2023/02/21 13:55:57;;;;;;;4.90;1.90;;;;;;;28.55;29.16;98831.25;4922089;28;20380;-76
2023/02/21 13:58:31;;;;;;;5.22;1.65;;;;;;;28.14;29.79;98835.16;4930625;28;20123;-76
2023/02/21 14:01:13;;;;;;;3.50;1.70;;;;;;;27.60;29.81;98823.13;4926978;29;20401;-76
2023/02/21 14:03:39;;;;;;;4.47;1.85;;;;;;;27.42;30.34;98818.56;4921875;28;20027;-77